createdAt,value
2023-01-20T00:01:28.669Z,1.90
2023-01-20T00:03:56.687Z,1.45
2023-01-20T00:06:24.942Z,1.35
2023-01-20T00:08:52.773Z,1.27
2023-01-20T00:11:20.187Z,1.33
2023-01-20T00:13:46.842Z,1.23
2023-01-20T00:16:13.921Z,1.52
2023-01-20T00:18:41.124Z,1.88
2023-01-20T00:21:10.294Z,1.38
2023-01-20T00:23:37.186Z,1.45
2023-01-20T00:26:11.591Z,1.80
2023-01-20T00:28:38.408Z,1.60
2023-01-20T00:31:15.162Z,1.48
2023-01-20T00:33:41.973Z,1.48
2023-01-20T00:36:09.009Z,1.85
2023-01-20T00:38:35.760Z,1.30
2023-01-20T00:41:02.353Z,1.60
2023-01-20T00:43:28.935Z,1.60
2023-01-20T00:45:55.649Z,1.58
2023-01-20T00:48:22.163Z,1.35
2023-01-20T00:50:48.906Z,1.52
2023-01-20T00:53:15.399Z,1.85
2023-01-20T00:55:41.920Z,1.83
2023-01-20T00:58:08.424Z,1.40
2023-01-20T01:00:35.373Z,1.70
2023-01-20T01:03:02.127Z,1.70
2023-01-20T01:05:28.737Z,1.67
2023-01-20T01:07:55.310Z,2.03
2023-01-20T01:10:21.821Z,1.60
2023-01-20T01:12:48.261Z,1.80
2023-01-20T01:15:15.465Z,1.65
2023-01-20T01:17:44.081Z,1.90
2023-01-20T01:20:11.881Z,1.70
2023-01-20T01:22:38.676Z,1.60
2023-01-20T01:25:05.565Z,1.75
2023-01-20T01:27:32.089Z,1.65
2023-01-20T01:29:58.624Z,1.52
2023-01-20T01:32:25.312Z,1.92
2023-01-20T01:34:51.843Z,1.88
2023-01-20T01:37:18.355Z,1.85
2023-01-20T01:39:44.886Z,1.73
2023-01-20T01:42:17.115Z,1.80
2023-01-20T01:45:12.175Z,1.63
2023-01-20T01:48:00.638Z,1.60
2023-01-20T01:50:33.101Z,1.67
2023-01-20T01:53:00.441Z,2.03
2023-01-20T01:55:30.931Z,1.65
2023-01-20T01:57:59.393Z,1.70
2023-01-20T02:00:26.303Z,1.75
2023-01-20T02:02:54.019Z,1.95
2023-01-20T02:05:21.890Z,1.75
2023-01-20T02:07:49.212Z,1.90
2023-01-20T02:10:16.985Z,1.80
2023-01-20T02:12:47.341Z,2.08
2023-01-20T02:15:14.416Z,1.85
2023-01-20T02:17:56.213Z,1.92
2023-01-20T02:20:40.483Z,2.10
2023-01-20T02:23:39.352Z,2.20
2023-01-20T02:26:17.781Z,1.85
2023-01-20T02:29:25.903Z,1.95
2023-01-20T02:32:10.290Z,1.80
2023-01-20T02:35:21.549Z,1.88
2023-01-20T02:37:55.298Z,2.28
2023-01-20T02:40:36.442Z,2.25
2023-01-20T02:43:38.117Z,2.25
2023-01-20T02:46:14.190Z,1.95
2023-01-20T02:49:09.761Z,2.22
2023-01-20T02:51:50.775Z,2.10
2023-01-20T02:54:20.669Z,1.73
2023-01-20T02:56:49.013Z,2.08
2023-01-20T02:59:20.014Z,2.05
2023-01-20T03:01:52.682Z,2.20
2023-01-20T03:04:23.780Z,1.88
2023-01-20T03:06:54.117Z,1.98
2023-01-20T03:09:25.668Z,2.03
2023-01-20T03:12:09.434Z,2.10
2023-01-20T03:14:35.925Z,2.15
2023-01-20T03:17:03.020Z,2.28
2023-01-20T03:19:29.849Z,2.15
2023-01-20T03:21:56.439Z,2.33
2023-01-20T03:24:23.970Z,2.17
2023-01-20T03:26:50.517Z,1.90
2023-01-20T03:29:18.297Z,2.10
2023-01-20T03:32:11.732Z,1.75
2023-01-20T03:34:41.944Z,2.53
2023-01-20T03:37:10.406Z,3.03
2023-01-20T03:39:39.957Z,2.13
2023-01-20T03:42:18.682Z,2.13
2023-01-20T03:44:45.147Z,1.92
2023-01-20T03:47:39.790Z,2.30
2023-01-20T03:50:15.177Z,2.00
2023-01-20T03:52:47.331Z,2.10
2023-01-20T03:55:30.244Z,2.22
2023-01-20T03:58:03.486Z,2.28
2023-01-20T04:00:33.145Z,2.30
2023-01-20T04:03:04.031Z,1.98
2023-01-20T04:05:30.749Z,2.30
2023-01-20T04:08:01.850Z,2.20
2023-01-20T04:10:31.204Z,2.65
2023-01-20T04:12:57.779Z,2.22
2023-01-20T04:15:35.384Z,2.53
2023-01-20T04:18:22.702Z,2.20
2023-01-20T04:21:02.180Z,2.55
2023-01-20T04:23:54.865Z,2.15
2023-01-20T04:26:21.374Z,2.03
2023-01-20T04:28:47.821Z,2.20
2023-01-20T04:31:29.229Z,2.03
2023-01-20T04:33:58.500Z,2.25
2023-01-20T04:36:24.962Z,2.28
2023-01-20T04:38:51.495Z,2.05
2023-01-20T04:41:18.180Z,2.17
2023-01-20T04:43:45.545Z,2.00
2023-01-20T04:46:13.292Z,2.58
2023-01-20T04:48:40.166Z,2.13
2023-01-20T04:51:09.193Z,2.50
2023-01-20T04:53:35.751Z,2.83
2023-01-20T04:56:02.527Z,2.42
2023-01-20T04:58:29.192Z,2.30
2023-01-20T05:00:55.794Z,2.55
2023-01-20T05:03:22.450Z,2.10
2023-01-20T05:05:55.636Z,2.10
2023-01-20T05:10:49.054Z,2.60
2023-01-20T05:13:16.032Z,2.30
2023-01-20T05:15:46.127Z,2.53
2023-01-20T05:18:12.811Z,2.38
2023-01-20T05:20:39.774Z,2.20
2023-01-20T05:23:07.199Z,2.65
2023-01-20T05:25:33.793Z,2.50
2023-01-20T05:28:00.742Z,2.40
2023-01-20T05:30:27.446Z,2.38
2023-01-20T05:32:55.576Z,2.53
2023-01-20T05:35:22.142Z,2.00
2023-01-20T05:37:48.716Z,2.30
2023-01-20T05:40:15.291Z,2.47
2023-01-20T05:42:41.769Z,2.20
2023-01-20T05:45:09.336Z,2.45
2023-01-20T05:47:35.942Z,2.05
2023-01-20T05:50:02.569Z,2.15
2023-01-20T05:52:29.242Z,2.33
2023-01-20T05:54:55.799Z,2.40
2023-01-20T05:57:25.774Z,2.42
2023-01-20T05:59:52.824Z,2.03
2023-01-20T06:02:20.207Z,2.30
2023-01-20T06:04:47.014Z,2.38
2023-01-20T06:07:14.059Z,2.30
2023-01-20T06:09:46.675Z,2.00
2023-01-20T06:12:13.230Z,2.42
2023-01-20T06:14:39.710Z,1.85
2023-01-20T06:17:06.233Z,2.38
2023-01-20T06:19:32.745Z,2.03
2023-01-20T06:21:59.289Z,1.70
2023-01-20T06:24:25.756Z,2.10
2023-01-20T06:26:52.329Z,2.00
2023-01-20T06:29:18.939Z,2.10
2023-01-20T06:31:45.996Z,1.88
2023-01-20T06:34:15.023Z,1.90
2023-01-20T06:36:41.619Z,2.15
2023-01-20T06:39:08.374Z,2.15
2023-01-20T06:41:34.947Z,2.13
2023-01-20T06:44:01.676Z,1.75
2023-01-20T06:46:31.109Z,1.60
2023-01-20T06:49:00.645Z,1.80
2023-01-20T06:51:29.425Z,1.80
2023-01-20T06:53:56.354Z,2.10
2023-01-20T06:56:23.777Z,2.10
2023-01-20T06:58:50.687Z,1.55
2023-01-20T07:01:28.795Z,1.60
2023-01-20T07:03:55.672Z,1.80
2023-01-20T07:06:24.954Z,1.65
2023-01-20T07:08:51.695Z,1.80
2023-01-20T07:11:18.647Z,1.60
2023-01-20T07:13:45.209Z,2.17
2023-01-20T07:16:15.193Z,1.90
2023-01-20T07:18:42.627Z,2.05
2023-01-20T07:21:11.417Z,6.10
2023-01-20T07:23:37.907Z,14.52
2023-01-20T07:26:06.786Z,17.08
2023-01-20T07:28:34.428Z,15.57
2023-01-20T07:31:12.774Z,18.60
2023-01-20T07:33:39.728Z,16.58
2023-01-20T07:36:07.811Z,16.88
2023-01-20T07:38:35.125Z,16.27
2023-01-20T07:41:05.072Z,15.20
2023-01-20T07:43:32.299Z,14.05
2023-01-20T07:46:03.666Z,13.57
2023-01-20T07:48:32.104Z,12.93
2023-01-20T07:51:05.315Z,12.98
2023-01-20T07:53:41.934Z,13.18
2023-01-20T07:56:16.493Z,11.40
2023-01-20T07:58:45.306Z,11.43
2023-01-20T08:01:16.375Z,11.20
2023-01-20T08:03:44.822Z,10.90
2023-01-20T08:06:13.945Z,10.63
2023-01-20T08:08:40.565Z,10.20
2023-01-20T08:11:08.557Z,10.05
2023-01-20T08:13:35.396Z,9.90
2023-01-20T08:16:04.132Z,9.50
2023-01-20T08:18:31.180Z,9.38
2023-01-20T08:20:58.102Z,9.52
2023-01-20T08:23:24.662Z,8.70
2023-01-20T08:26:02.210Z,9.25
2023-01-20T08:28:29.780Z,9.27
2023-01-20T08:31:06.982Z,31.92
2023-01-20T08:33:33.778Z,27.85
2023-01-20T08:36:11.841Z,20.27
2023-01-20T08:38:39.336Z,18.60
2023-01-20T08:41:14.942Z,19.00
2023-01-20T08:43:41.430Z,33.55
2023-01-20T08:46:11.011Z,73.57
2023-01-20T08:48:39.157Z,26.02
2023-01-20T08:51:12.175Z,39.33
2023-01-20T08:53:38.920Z,30.48
2023-01-20T08:56:06.162Z,30.52
2023-01-20T08:58:32.746Z,40.85
2023-01-20T09:01:07.687Z,36.65
2023-01-20T09:03:34.272Z,33.00
2023-01-20T09:06:04.644Z,34.58
2023-01-20T09:08:31.246Z,31.38
2023-01-20T09:11:08.380Z,32.00
2023-01-20T09:13:34.979Z,29.45
2023-01-20T09:16:02.094Z,28.95
2023-01-20T09:18:28.676Z,28.98
2023-01-20T09:20:57.991Z,27.75
2023-01-20T10:01:20.285Z,16.15
2023-01-20T10:04:11.328Z,16.85
2023-01-20T10:06:58.060Z,15.82
2023-01-20T10:09:38.620Z,15.90
2023-01-20T10:12:16.232Z,15.68
2023-01-20T10:14:50.823Z,16.05
2023-01-20T10:17:45.750Z,15.20
2023-01-20T10:20:18.021Z,15.20
2023-01-20T10:23:01.039Z,15.75
2023-01-20T10:25:37.850Z,15.93
2023-01-20T10:28:14.004Z,33.38
2023-01-20T10:30:40.772Z,34.28
2023-01-20T10:33:12.816Z,33.70
2023-01-20T10:35:44.467Z,41.40
2023-01-20T10:38:43.244Z,88.20
2023-01-20T10:41:19.618Z,77.85
2023-01-20T10:43:47.880Z,94.25
2023-01-20T10:46:35.532Z,105.65
2023-01-20T10:49:18.656Z,123.97
2023-01-20T10:54:20.880Z,140.20
2023-01-20T10:56:53.819Z,123.88
2023-01-20T10:59:32.247Z,155.85
2023-01-20T11:02:20.192Z,142.98
2023-01-20T11:04:52.839Z,141.13
2023-01-20T11:07:19.574Z,116.30
2023-01-20T11:09:49.032Z,108.90
2023-01-20T11:12:27.134Z,101.30
2023-01-20T11:14:56.087Z,102.25
2023-01-20T11:17:22.626Z,184.43
2023-01-20T11:19:55.137Z,133.55
2023-01-20T11:22:34.412Z,113.15
2023-01-20T11:25:04.089Z,101.75
2023-01-20T11:27:44.579Z,100.75
2023-01-20T11:30:27.618Z,93.57
2023-01-20T11:35:57.981Z,88.30
2023-01-20T11:38:27.294Z,88.25
2023-01-20T11:40:55.189Z,86.63
2023-01-20T11:43:51.776Z,84.68
2023-01-20T11:46:33.403Z,80.85
2023-01-20T11:49:17.785Z,79.00
2023-01-20T11:51:50.721Z,75.35
2023-01-20T11:54:29.411Z,76.22
2023-01-20T11:57:07.924Z,70.70
2023-01-20T11:59:36.529Z,68.55
2023-01-20T12:02:08.772Z,69.55
2023-01-20T12:04:56.445Z,67.78
2023-01-20T12:07:30.089Z,65.38
2023-01-20T12:10:04.583Z,65.13
2023-01-20T12:12:45.308Z,61.50
2023-01-20T12:15:15.216Z,61.78
2023-01-20T12:17:45.833Z,58.95
2023-01-20T12:20:53.959Z,57.00
2023-01-20T12:23:39.203Z,55.80
2023-01-20T12:26:06.736Z,53.72
2023-01-20T12:28:54.324Z,54.42
2023-01-20T12:31:23.960Z,53.63
2023-01-20T12:33:53.503Z,51.25
2023-01-20T12:36:32.138Z,50.00
2023-01-20T12:39:13.945Z,49.42
2023-01-20T12:41:52.657Z,46.65
2023-01-20T12:45:04.195Z,47.08
2023-01-20T12:47:42.501Z,43.35
2023-01-20T12:50:27.466Z,46.13
2023-01-20T12:52:54.847Z,45.28
2023-01-20T12:55:55.786Z,44.95
2023-01-20T12:58:48.309Z,43.30
2023-01-20T13:01:52.275Z,69.53
2023-01-20T13:04:57.887Z,53.13
2023-01-20T13:07:36.214Z,68.47
2023-01-20T13:10:34.512Z,85.47
2023-01-20T13:13:19.015Z,94.18
2023-01-20T13:15:54.639Z,71.65
2023-01-20T13:18:31.454Z,71.65
2023-01-20T13:20:58.219Z,70.78
2023-01-20T13:23:37.917Z,103.82
2023-01-20T13:26:06.216Z,94.30
2023-01-20T13:28:33.207Z,126.38
2023-01-20T13:31:01.810Z,122.43
2023-01-20T13:33:40.037Z,101.35
2023-01-20T13:36:21.071Z,94.10
2023-01-20T13:39:09.045Z,87.72
2023-01-20T13:41:50.939Z,85.22
2023-01-20T13:44:37.737Z,84.20
2023-01-20T13:47:08.918Z,79.13
2023-01-20T13:49:46.660Z,76.47
2023-01-20T13:52:13.336Z,75.38
2023-01-20T13:54:46.979Z,73.88
2023-01-20T13:57:24.272Z,70.75
2023-01-20T13:59:52.091Z,68.55
2023-01-20T14:02:20.228Z,70.28
2023-01-20T14:04:47.507Z,64.32
2023-01-20T14:07:24.474Z,66.20
2023-01-20T14:09:52.966Z,62.25
2023-01-20T14:12:19.755Z,60.25
2023-01-20T14:14:50.275Z,61.13
2023-01-20T14:17:23.048Z,63.10
2023-01-20T14:19:52.856Z,123.53
2023-01-20T14:22:24.545Z,139.60
2023-01-20T14:24:52.966Z,90.80
2023-01-20T14:27:28.024Z,116.32
2023-01-20T14:29:56.555Z,131.68
2023-01-20T14:32:26.035Z,113.00
2023-01-20T14:34:53.308Z,171.20
2023-01-20T14:37:27.645Z,131.82
2023-01-20T14:39:56.804Z,179.95
2023-01-20T14:42:24.430Z,166.82
2023-01-20T14:44:52.543Z,171.80
2023-01-20T14:47:20.745Z,145.50
2023-01-20T14:49:49.339Z,135.20
2023-01-20T14:52:28.839Z,165.35
2023-01-20T14:54:56.591Z,159.57
2023-01-20T14:57:26.127Z,179.35
2023-01-20T15:00:12.251Z,165.73
2023-01-20T15:02:40.611Z,141.10
2023-01-20T15:05:31.220Z,139.48
2023-01-20T15:08:26.317Z,137.05
2023-01-20T15:11:16.416Z,132.55
2023-01-20T15:14:04.898Z,213.90
2023-01-20T15:16:38.598Z,213.05
2023-01-20T15:19:18.295Z,178.13
2023-01-20T15:21:49.924Z,161.05
2023-01-20T15:24:18.524Z,148.48
2023-01-20T15:26:46.785Z,146.80
2023-01-20T15:29:39.349Z,139.48
2023-01-20T15:32:11.139Z,135.98
2023-01-20T15:34:37.886Z,130.93
2023-01-20T15:37:11.379Z,127.57
2023-01-20T15:39:37.925Z,124.40
2023-01-20T15:42:06.275Z,120.40
2023-01-20T15:44:32.790Z,119.22
2023-01-20T15:46:59.265Z,116.55
2023-01-20T15:49:25.839Z,111.00
2023-01-20T15:51:52.715Z,110.97
2023-01-20T15:54:19.245Z,106.40
2023-01-20T15:56:45.804Z,101.97
2023-01-20T15:59:18.181Z,102.40
2023-01-20T16:01:50.006Z,94.93
2023-01-20T16:04:16.949Z,94.23
2023-01-20T16:06:44.157Z,94.70
2023-01-20T16:09:20.957Z,91.70
2023-01-20T16:11:47.627Z,90.40
2023-01-20T16:14:14.188Z,87.30
2023-01-20T16:16:41.097Z,86.15
2023-01-20T16:19:09.607Z,83.10
2023-01-20T16:21:36.091Z,83.43
2023-01-20T16:24:02.506Z,80.95
2023-01-20T16:26:31.466Z,80.85
2023-01-20T16:28:58.535Z,76.43
2023-01-20T16:31:26.886Z,75.93
2023-01-20T16:33:54.232Z,73.18
2023-01-20T16:36:22.460Z,72.25
2023-01-20T16:38:49.929Z,69.20
2023-01-20T16:41:30.936Z,70.28
2023-01-20T16:43:58.494Z,68.68
2023-01-20T16:46:27.667Z,67.97
2023-01-20T16:48:59.360Z,65.40
2023-01-20T16:51:26.653Z,65.30
2023-01-20T16:53:54.275Z,61.78
2023-01-20T16:56:27.699Z,60.05
2023-01-20T16:58:57.841Z,59.28
2023-01-20T17:01:25.607Z,58.28
2023-01-20T17:03:54.722Z,57.03
2023-01-20T17:06:24.090Z,57.28
2023-01-20T17:08:55.890Z,55.92
2023-01-20T17:11:25.045Z,55.90
2023-01-20T17:13:52.670Z,53.47
2023-01-20T17:16:20.526Z,52.03
2023-01-20T17:18:55.211Z,51.08
2023-01-20T17:21:23.080Z,48.35
2023-01-20T17:23:57.059Z,49.42
2023-01-20T17:26:24.497Z,48.53
2023-01-20T17:28:57.045Z,48.28
2023-01-20T17:31:24.181Z,45.00
2023-01-20T17:33:51.445Z,44.78
2023-01-20T17:36:18.389Z,43.20
2023-01-20T17:38:45.476Z,43.38
2023-01-20T17:41:13.360Z,43.35
2023-01-20T17:43:46.140Z,41.95
2023-01-20T17:46:19.052Z,41.20
2023-01-20T17:51:15.369Z,39.80
2023-01-20T17:53:42.804Z,38.78
2023-01-20T17:56:13.164Z,38.53
2023-01-20T17:58:43.998Z,37.85
2023-01-20T18:01:20.867Z,37.15
2023-01-20T18:03:49.859Z,35.88
2023-01-20T18:06:18.554Z,35.38
2023-01-20T18:08:50.772Z,33.35
2023-01-20T18:11:19.522Z,33.58
2023-01-20T18:13:46.763Z,33.83
2023-01-20T18:16:15.181Z,33.42
2023-01-20T18:18:45.648Z,32.00
2023-01-20T18:21:13.630Z,32.97
2023-01-20T18:23:41.215Z,31.23
2023-01-20T18:26:10.251Z,30.58
2023-01-20T18:28:37.782Z,30.63
2023-01-20T18:31:10.621Z,29.23
2023-01-20T18:36:07.907Z,28.92
2023-01-20T18:38:34.599Z,29.08
2023-01-20T18:41:04.207Z,27.75
2023-01-20T18:43:31.232Z,28.42
2023-01-20T18:45:57.735Z,26.00
2023-01-20T18:48:27.450Z,27.38
2023-01-20T18:50:59.826Z,25.38
2023-01-20T18:53:28.004Z,25.27
2023-01-20T18:56:01.225Z,24.90
2023-01-20T18:58:31.055Z,24.25
2023-01-20T19:01:09.240Z,24.17
2023-01-20T19:03:37.005Z,24.40
2023-01-20T19:06:08.619Z,22.60
2023-01-20T19:08:35.139Z,23.05
2023-01-20T19:11:03.728Z,23.10
2023-01-20T19:13:30.287Z,21.25
2023-01-20T19:15:57.107Z,22.73
2023-01-20T19:18:24.038Z,21.27
2023-01-20T19:20:50.651Z,20.27
2023-01-20T19:23:17.627Z,21.02
2023-01-20T19:25:44.391Z,21.27
2023-01-20T19:28:12.128Z,20.83
2023-01-20T19:30:38.625Z,20.27
2023-01-20T19:33:05.864Z,19.23
2023-01-20T19:35:33.581Z,19.55
2023-01-20T19:38:00.168Z,19.75
2023-01-20T19:40:26.683Z,18.58
2023-01-20T19:42:53.898Z,18.20
2023-01-20T19:45:20.432Z,18.60
2023-01-20T19:47:46.991Z,17.35
2023-01-20T19:50:13.538Z,17.15
2023-01-20T19:52:40.227Z,16.83
2023-01-20T19:55:06.698Z,16.45
2023-01-20T19:57:33.202Z,16.80
2023-01-20T19:59:59.711Z,16.08
2023-01-20T20:02:27.569Z,16.05
2023-01-20T20:04:54.064Z,16.33
2023-01-20T20:07:20.546Z,15.38
2023-01-20T20:09:47.026Z,14.98
2023-01-20T20:12:13.693Z,15.15
2023-01-20T20:14:40.300Z,14.88
2023-01-20T20:17:06.805Z,14.88
2023-01-20T20:19:33.266Z,14.20
2023-01-20T20:21:59.732Z,14.32
2023-01-20T20:24:26.233Z,14.18
2023-01-20T20:26:52.728Z,14.70
2023-01-20T20:29:19.685Z,13.50
2023-01-20T20:31:46.885Z,13.50
2023-01-20T20:34:16.451Z,12.50
2023-01-20T20:36:43.016Z,12.50
2023-01-20T20:39:13.737Z,13.07
2023-01-20T20:41:40.271Z,12.20
2023-01-20T20:44:07.002Z,12.32
2023-01-20T20:46:33.611Z,12.15
2023-01-20T20:49:01.102Z,11.93
2023-01-20T20:51:31.640Z,11.45
2023-01-20T20:54:00.400Z,12.00
2023-01-20T20:56:27.995Z,11.68
2023-01-20T20:59:01.420Z,10.80
2023-01-20T21:01:30.190Z,11.25
2023-01-20T21:03:57.979Z,10.93
2023-01-20T21:06:25.279Z,10.88
2023-01-20T21:08:52.772Z,10.07
2023-01-20T21:11:20.261Z,10.45
2023-01-20T21:13:49.367Z,10.45
2023-01-20T21:16:20.749Z,9.50
2023-01-20T21:18:47.786Z,10.38
2023-01-20T21:21:17.011Z,9.95
2023-01-20T21:23:50.977Z,10.07
2023-01-20T21:26:17.993Z,9.45
2023-01-20T21:28:45.441Z,9.43
2023-01-20T21:31:14.340Z,9.80
2023-01-20T21:33:42.248Z,9.45
2023-01-20T21:36:12.339Z,8.35
2023-01-20T21:38:42.800Z,9.30
2023-01-20T21:41:10.591Z,9.65
2023-01-20T21:43:58.207Z,9.18
2023-01-20T21:46:26.954Z,9.45
2023-01-20T21:49:11.905Z,8.90
2023-01-20T21:51:57.318Z,8.95
2023-01-20T21:54:28.861Z,9.02
2023-01-20T21:56:55.711Z,8.02
2023-01-20T21:59:22.604Z,8.32
2023-01-20T22:01:49.178Z,7.95
2023-01-20T22:04:15.713Z,8.32
2023-01-20T22:06:42.933Z,7.95
2023-01-20T22:09:09.446Z,8.18
2023-01-20T22:11:36.089Z,8.13
2023-01-20T22:14:02.922Z,8.57
2023-01-20T22:16:29.502Z,7.80
2023-01-20T22:18:55.986Z,7.10
2023-01-20T22:21:23.042Z,7.68
2023-01-20T22:23:49.613Z,7.32
2023-01-20T22:26:16.148Z,7.38
2023-01-20T22:28:42.994Z,7.20
2023-01-20T22:31:17.163Z,7.30
2023-01-20T22:33:43.739Z,7.05
2023-01-20T22:36:10.333Z,6.90
2023-01-20T22:38:36.828Z,7.03
2023-01-20T22:41:05.618Z,6.97
2023-01-20T22:43:33.715Z,7.18
2023-01-20T22:46:02.150Z,6.70
2023-01-20T22:48:31.781Z,6.78
2023-01-20T22:51:05.505Z,7.10
2023-01-20T22:53:32.294Z,7.00
2023-01-20T22:56:07.169Z,6.53
2023-01-20T22:58:37.242Z,7.03
2023-01-20T23:01:05.051Z,5.80
2023-01-20T23:03:31.606Z,6.70
2023-01-20T23:05:59.970Z,6.25
2023-01-20T23:08:28.291Z,6.05
2023-01-20T23:10:56.614Z,6.65
2023-01-20T23:13:24.515Z,6.65
2023-01-20T23:15:51.564Z,6.13
2023-01-20T23:18:19.149Z,6.45
2023-01-20T23:20:49.638Z,6.60
2023-01-20T23:23:16.662Z,6.30
2023-01-20T23:25:43.143Z,6.60
2023-01-20T23:28:10.395Z,6.45
2023-01-20T23:30:37.335Z,6.13
2023-01-20T23:33:04.623Z,6.53
2023-01-20T23:35:31.159Z,5.63
2023-01-20T23:37:57.625Z,6.57
2023-01-20T23:40:24.571Z,6.55
2023-01-20T23:42:51.051Z,6.28
2023-01-20T23:45:17.750Z,5.78
2023-01-20T23:47:44.316Z,6.22
2023-01-20T23:50:11.448Z,6.60
2023-01-20T23:52:37.946Z,6.45
2023-01-20T23:55:04.998Z,5.95
2023-01-20T23:57:31.516Z,6.25
2023-01-20T23:59:58.046Z,6.38
